sensor_id;sensor_type;location;lat;lon;timestamp;pressure;altitude;pressure_sealevel;temperature;humidity
50977;BME280;36992;48.200;12.418;2024-01-30T00:01:01;98184.38;;;4.25;49.24
50977;BME280;36992;48.200;12.418;2024-01-30T00:03:29;98188.09;;;4.24;49.44
50977;BME280;36992;48.200;12.418;2024-01-30T00:05:55;98176.25;;;4.20;49.43
50977;BME280;36992;48.200;12.418;2024-01-30T00:08:22;98172.94;;;4.17;49.44
50977;BME280;36992;48.200;12.418;2024-01-30T00:10:48;98176.66;;;4.16;49.54
50977;BME280;36992;48.200;12.418;2024-01-30T00:13:15;98169.69;;;4.15;49.83
50977;BME280;36992;48.200;12.418;2024-01-30T00:15:44;98173.97;;;4.16;49.73
50977;BME280;36992;48.200;12.418;2024-01-30T00:18:11;98176.66;;;4.16;49.35
50977;BME280;36992;48.200;12.418;2024-01-30T00:20:38;98173.78;;;4.18;49.20
50977;BME280;36992;48.200;12.418;2024-01-30T00:23:05;98175.03;;;4.15;49.47
50977;BME280;36992;48.200;12.418;2024-01-30T00:25:31;98172.56;;;4.14;49.39
50977;BME280;36992;48.200;12.418;2024-01-30T00:27:58;98178.72;;;4.14;49.35
50977;BME280;36992;48.200;12.418;2024-01-30T00:30:25;98171.75;;;4.13;49.71
50977;BME280;36992;48.200;12.418;2024-01-30T00:32:51;98171.75;;;4.13;49.72
50977;BME280;36992;48.200;12.418;2024-01-30T00:35:18;98171.97;;;4.12;49.70
50977;BME280;36992;48.200;12.418;2024-01-30T00:37:45;98168.84;;;4.15;49.55
50977;BME280;36992;48.200;12.418;2024-01-30T00:40:12;98170.94;;;4.13;49.51
50977;BME280;36992;48.200;12.418;2024-01-30T00:42:40;98169.09;;;4.13;49.45
50977;BME280;36992;48.200;12.418;2024-01-30T00:45:11;98170.28;;;4.17;49.36
50977;BME280;36992;48.200;12.418;2024-01-30T00:47:38;98168.06;;;4.14;49.68
50977;BME280;36992;48.200;12.418;2024-01-30T00:50:05;98167.22;;;4.14;49.41
50977;BME280;36992;48.200;12.418;2024-01-30T00:52:32;98167.44;;;4.12;48.79
50977;BME280;36992;48.200;12.418;2024-01-30T00:55:00;98172.75;;;4.12;49.08
50977;BME280;36992;48.200;12.418;2024-01-30T00:57:26;98175.03;;;4.09;48.77
50977;BME280;36992;48.200;12.418;2024-01-30T00:59:53;98173.63;;;4.06;49.12
50977;BME280;36992;48.200;12.418;2024-01-30T01:02:20;98176.72;;;4.03;49.29
50977;BME280;36992;48.200;12.418;2024-01-30T01:04:46;98179.81;;;4.00;49.30
50977;BME280;36992;48.200;12.418;2024-01-30T01:07:13;98175.50;;;3.99;49.16
50977;BME280;36992;48.200;12.418;2024-01-30T01:09:39;98175.13;;;3.95;49.29
50977;BME280;36992;48.200;12.418;2024-01-30T01:12:07;98179.22;;;3.98;49.34
50977;BME280;36992;48.200;12.418;2024-01-30T01:14:33;98175.31;;;3.94;49.14
50977;BME280;36992;48.200;12.418;2024-01-30T01:17:01;98168.16;;;3.94;49.45
50977;BME280;36992;48.200;12.418;2024-01-30T01:19:28;98178.00;;;3.94;49.33
50977;BME280;36992;48.200;12.418;2024-01-30T01:21:54;98168.38;;;3.92;49.30
50977;BME280;36992;48.200;12.418;2024-01-30T01:24:20;98171.03;;;3.92;48.73
50977;BME280;36992;48.200;12.418;2024-01-30T01:26:47;98174.72;;;3.91;49.28
50977;BME280;36992;48.200;12.418;2024-01-30T01:29:15;98170.22;;;3.92;49.26
50977;BME280;36992;48.200;12.418;2024-01-30T01:31:41;98171.47;;;3.89;49.40
50977;BME280;36992;48.200;12.418;2024-01-30T01:34:08;98173.50;;;3.87;49.12
50977;BME280;36992;48.200;12.418;2024-01-30T01:36:35;98169.22;;;3.86;48.92
50977;BME280;36992;48.200;12.418;2024-01-30T01:39:01;98173.75;;;3.86;49.02
50977;BME280;36992;48.200;12.418;2024-01-30T01:41:29;98167.78;;;3.84;49.08
50977;BME280;36992;48.200;12.418;2024-01-30T01:43:56;98160.03;;;3.82;49.11
50977;BME280;36992;48.200;12.418;2024-01-30T01:46:26;98161.66;;;3.83;48.95
50977;BME280;36992;48.200;12.418;2024-01-30T01:48:53;98163.09;;;3.79;49.19
50977;BME280;36992;48.200;12.418;2024-01-30T01:51:20;98159.63;;;3.78;48.92
50977;BME280;36992;48.200;12.418;2024-01-30T01:53:48;98158.22;;;3.76;49.28
50977;BME280;36992;48.200;12.418;2024-01-30T01:56:15;98156.78;;;3.73;49.12
50977;BME280;36992;48.200;12.418;2024-01-30T01:58:41;98154.31;;;3.72;49.26
50977;BME280;36992;48.200;12.418;2024-01-30T02:01:08;98156.16;;;3.71;49.40
50977;BME280;36992;48.200;12.418;2024-01-30T02:03:36;98158.81;;;3.71;49.30
50977;BME280;36992;48.200;12.418;2024-01-30T02:06:03;98163.56;;;3.69;49.47
50977;BME280;36992;48.200;12.418;2024-01-30T02:08:30;98162.72;;;3.69;49.39
50977;BME280;36992;48.200;12.418;2024-01-30T02:10:57;98159.25;;;3.68;49.17
50977;BME280;36992;48.200;12.418;2024-01-30T02:13:23;98153.09;;;3.68;49.28
50977;BME280;36992;48.200;12.418;2024-01-30T02:15:50;98149.00;;;3.65;49.48
50977;BME280;36992;48.200;12.418;2024-01-30T02:18:17;98154.34;;;3.65;49.16
50977;BME280;36992;48.200;12.418;2024-01-30T02:20:45;98151.47;;;3.67;49.43
50977;BME280;36992;48.200;12.418;2024-01-30T02:23:13;98153.53;;;3.64;49.14
50977;BME280;36992;48.200;12.418;2024-01-30T02:25:42;98150.25;;;3.62;48.75
50977;BME280;36992;48.200;12.418;2024-01-30T02:28:09;98153.13;;;3.61;49.07
50977;BME280;36992;48.200;12.418;2024-01-30T02:30:36;98156.00;;;3.59;49.32
50977;BME280;36992;48.200;12.418;2024-01-30T02:33:02;98152.75;;;3.57;49.43
50977;BME280;36992;48.200;12.418;2024-01-30T02:35:29;98152.94;;;3.56;49.43
50977;BME280;36992;48.200;12.418;2024-01-30T02:37:55;98145.16;;;3.54;49.29
50977;BME280;36992;48.200;12.418;2024-01-30T02:40:23;98147.63;;;3.56;49.12
50977;BME280;36992;48.200;12.418;2024-01-30T02:42:50;98147.03;;;3.54;49.26
50977;BME280;36992;48.200;12.418;2024-01-30T02:45:16;98155.22;;;3.52;49.37
50977;BME280;36992;48.200;12.418;2024-01-30T02:47:43;98154.38;;;3.51;49.33
50977;BME280;36992;48.200;12.418;2024-01-30T02:50:10;98150.94;;;3.51;49.35
50977;BME280;36992;48.200;12.418;2024-01-30T02:52:36;98151.94;;;3.50;49.33
50977;BME280;36992;48.200;12.418;2024-01-30T02:55:03;98150.28;;;3.49;49.19
50977;BME280;36992;48.200;12.418;2024-01-30T02:57:31;98148.47;;;3.49;49.23
50977;BME280;36992;48.200;12.418;2024-01-30T02:59:58;98142.53;;;3.47;49.30
50977;BME280;36992;48.200;12.418;2024-01-30T03:02:24;98142.75;;;3.46;49.32
50977;BME280;36992;48.200;12.418;2024-01-30T03:04:51;98147.44;;;3.44;49.15
50977;BME280;36992;48.200;12.418;2024-01-30T03:07:17;98140.47;;;3.43;48.94
50977;BME280;36992;48.200;12.418;2024-01-30T03:09:44;98139.06;;;3.40;48.95
50977;BME280;36992;48.200;12.418;2024-01-30T03:12:11;98142.94;;;3.37;49.41
50977;BME280;36992;48.200;12.418;2024-01-30T03:14:38;98130.66;;;3.36;49.12
50977;BME280;36992;48.200;12.418;2024-01-30T03:17:05;98139.69;;;3.35;49.13
50977;BME280;36992;48.200;12.418;2024-01-30T03:19:31;98125.78;;;3.33;49.25
50977;BME280;36992;48.200;12.418;2024-01-30T03:21:58;98131.09;;;3.33;49.27
50977;BME280;36992;48.200;12.418;2024-01-30T03:24:25;98138.25;;;3.33;49.32
50977;BME280;36992;48.200;12.418;2024-01-30T03:26:52;98134.78;;;3.32;49.20
50977;BME280;36992;48.200;12.418;2024-01-30T03:29:18;98133.13;;;3.31;49.67
50977;BME280;36992;48.200;12.418;2024-01-30T03:31:46;98137.47;;;3.32;49.26
50977;BME280;36992;48.200;12.418;2024-01-30T03:34:12;98129.88;;;3.29;49.31
50977;BME280;36992;48.200;12.418;2024-01-30T03:36:39;98135.19;;;3.29;49.59
50977;BME280;36992;48.200;12.418;2024-01-30T03:39:05;98124.53;;;3.29;49.62
50977;BME280;36992;48.200;12.418;2024-01-30T03:41:32;98133.56;;;3.28;49.53
50977;BME280;36992;48.200;12.418;2024-01-30T03:43:58;98127.41;;;3.28;49.63
50977;BME280;36992;48.200;12.418;2024-01-30T03:46:25;98122.31;;;3.26;49.39
50977;BME280;36992;48.200;12.418;2024-01-30T03:48:53;98127.41;;;3.28;49.12
50977;BME280;36992;48.200;12.418;2024-01-30T03:51:20;98131.31;;;3.25;49.57
50977;BME280;36992;48.200;12.418;2024-01-30T03:53:46;98127.00;;;3.24;49.55
50977;BME280;36992;48.200;12.418;2024-01-30T03:56:13;98126.41;;;3.22;49.77
50977;BME280;36992;48.200;12.418;2024-01-30T03:58:39;98135.25;;;3.22;49.32
50977;BME280;36992;48.200;12.418;2024-01-30T04:01:06;98129.06;;;3.22;49.49
50977;BME280;36992;48.200;12.418;2024-01-30T04:03:33;98135.44;;;3.21;49.86
50977;BME280;36992;48.200;12.418;2024-01-30T04:06:01;98127.44;;;3.21;49.52
50977;BME280;36992;48.200;12.418;2024-01-30T04:08:27;98129.47;;;3.19;49.13
50977;BME280;36992;48.200;12.418;2024-01-30T04:10:54;98137.47;;;3.19;49.10
50977;BME280;36992;48.200;12.418;2024-01-30T04:13:20;98132.38;;;3.17;49.05
50977;BME280;36992;48.200;12.418;2024-01-30T04:15:47;98125.41;;;3.16;49.22
50977;BME280;36992;48.200;12.418;2024-01-30T04:18:13;98131.75;;;3.15;49.67
50977;BME280;36992;48.200;12.418;2024-01-30T04:20:40;98121.31;;;3.14;49.30
50977;BME280;36992;48.200;12.418;2024-01-30T04:23:07;98137.06;;;3.15;49.39
50977;BME280;36992;48.200;12.418;2024-01-30T04:25:34;98128.69;;;3.12;49.44
50977;BME280;36992;48.200;12.418;2024-01-30T04:28:00;98133.22;;;3.11;49.58
50977;BME280;36992;48.200;12.418;2024-01-30T04:30:27;98130.75;;;3.09;49.58
50977;BME280;36992;48.200;12.418;2024-01-30T04:32:54;98136.06;;;3.09;49.59
50977;BME280;36992;48.200;12.418;2024-01-30T04:35:20;98127.50;;;3.07;49.48
50977;BME280;36992;48.200;12.418;2024-01-30T04:37:51;98139.97;;;3.07;49.47
50977;BME280;36992;48.200;12.418;2024-01-30T04:40:19;98133.63;;;3.08;49.48
50977;BME280;36992;48.200;12.418;2024-01-30T04:42:46;98138.53;;;3.04;49.38
50977;BME280;36992;48.200;12.418;2024-01-30T04:45:12;98138.53;;;3.04;49.27
50977;BME280;36992;48.200;12.418;2024-01-30T04:47:39;98136.91;;;3.03;49.44
50977;BME280;36992;48.200;12.418;2024-01-30T04:50:07;98134.25;;;3.03;49.65
50977;BME280;36992;48.200;12.418;2024-01-30T04:52:34;98131.78;;;3.02;49.61
50977;BME280;36992;48.200;12.418;2024-01-30T04:55:00;98133.66;;;3.01;49.67
50977;BME280;36992;48.200;12.418;2024-01-30T04:57:28;98131.59;;;3.03;49.19
50977;BME280;36992;48.200;12.418;2024-01-30T04:59:56;98131.97;;;3.00;49.19
50977;BME280;36992;48.200;12.418;2024-01-30T05:02:22;98130.97;;;3.01;49.67
50977;BME280;36992;48.200;12.418;2024-01-30T05:04:49;98131.97;;;3.00;49.66
50977;BME280;36992;48.200;12.418;2024-01-30T05:07:15;98133.00;;;2.99;49.79
50977;BME280;36992;48.200;12.418;2024-01-30T05:09:42;98126.66;;;3.00;49.75
50977;BME280;36992;48.200;12.418;2024-01-30T05:12:08;98129.31;;;3.00;49.65
50977;BME280;36992;48.200;12.418;2024-01-30T05:14:36;98123.00;;;3.01;49.46
50977;BME280;36992;48.200;12.418;2024-01-30T05:17:03;98138.97;;;3.01;49.44
50977;BME280;36992;48.200;12.418;2024-01-30T05:19:29;98136.50;;;3.00;49.52
50977;BME280;36992;48.200;12.418;2024-01-30T05:21:55;98132.41;;;2.97;49.59
50977;BME280;36992;48.200;12.418;2024-01-30T05:24:22;98143.25;;;2.95;49.98
50977;BME280;36992;48.200;12.418;2024-01-30T05:26:48;98146.97;;;2.94;49.79
50977;BME280;36992;48.200;12.418;2024-01-30T05:29:16;98147.16;;;2.93;49.64
50977;BME280;36992;48.200;12.418;2024-01-30T05:31:44;98148.78;;;2.94;49.38
50977;BME280;36992;48.200;12.418;2024-01-30T05:34:10;98144.50;;;2.93;49.52
50977;BME280;36992;48.200;12.418;2024-01-30T05:36:37;98157.00;;;2.92;49.64
50977;BME280;36992;48.200;12.418;2024-01-30T05:39:03;98150.84;;;2.92;49.88
50977;BME280;36992;48.200;12.418;2024-01-30T05:41:30;98161.50;;;2.92;49.76
50977;BME280;36992;48.200;12.418;2024-01-30T05:43:56;98156.16;;;2.92;49.76
50977;BME280;36992;48.200;12.418;2024-01-30T05:46:23;98159.66;;;2.92;49.79
50977;BME280;36992;48.200;12.418;2024-01-30T05:48:51;98165.59;;;2.94;49.71
50977;BME280;36992;48.200;12.418;2024-01-30T05:51:18;98163.13;;;2.93;49.97
50977;BME280;36992;48.200;12.418;2024-01-30T05:53:44;98166.81;;;2.92;49.90
50977;BME280;36992;48.200;12.418;2024-01-30T05:56:11;98158.63;;;2.93;49.67
50977;BME280;36992;48.200;12.418;2024-01-30T05:58:37;98166.81;;;2.92;49.87
50977;BME280;36992;48.200;12.418;2024-01-30T06:01:06;98162.09;;;2.94;50.05
50977;BME280;36992;48.200;12.418;2024-01-30T06:03:33;98167.25;;;2.89;49.91
50977;BME280;36992;48.200;12.418;2024-01-30T06:06:01;98168.44;;;2.93;49.96
50977;BME280;36992;48.200;12.418;2024-01-30T06:08:27;98162.53;;;2.91;50.03
50977;BME280;36992;48.200;12.418;2024-01-30T06:10:54;98161.69;;;2.90;49.82
50977;BME280;36992;48.200;12.418;2024-01-30T06:13:20;98165.59;;;2.88;49.62
50977;BME280;36992;48.200;12.418;2024-01-30T06:15:47;98162.72;;;2.89;49.74
50977;BME280;36992;48.200;12.418;2024-01-30T06:18:13;98167.84;;;2.91;49.84
50977;BME280;36992;48.200;12.418;2024-01-30T06:20:40;98160.88;;;2.90;50.12
50977;BME280;36992;48.200;12.418;2024-01-30T06:23:08;98166.81;;;2.92;49.76
50977;BME280;36992;48.200;12.418;2024-01-30T06:25:35;98174.19;;;2.90;49.92
50977;BME280;36992;48.200;12.418;2024-01-30T06:28:01;98170.50;;;2.91;49.88
50977;BME280;36992;48.200;12.418;2024-01-30T06:30:27;98169.69;;;2.90;49.47
50977;BME280;36992;48.200;12.418;2024-01-30T06:32:54;98173.38;;;2.89;49.44
50977;BME280;36992;48.200;12.418;2024-01-30T06:35:20;98172.78;;;2.87;49.18
50977;BME280;36992;48.200;12.418;2024-01-30T06:37:47;98178.28;;;2.86;49.42
50977;BME280;36992;48.200;12.418;2024-01-30T06:40:15;98178.28;;;2.86;49.62
50977;BME280;36992;48.200;12.418;2024-01-30T06:42:42;98182.19;;;2.83;49.45
50977;BME280;36992;48.200;12.418;2024-01-30T06:45:09;98186.69;;;2.82;49.53
50977;BME280;36992;48.200;12.418;2024-01-30T06:47:35;98187.69;;;2.81;49.49
50977;BME280;36992;48.200;12.418;2024-01-30T06:50:02;98194.06;;;2.80;49.55
50977;BME280;36992;48.200;12.418;2024-01-30T06:52:28;98185.47;;;2.78;49.80
50977;BME280;36992;48.200;12.418;2024-01-30T06:54:55;98193.44;;;2.78;49.79
50977;BME280;36992;48.200;12.418;2024-01-30T06:57:23;98190.78;;;2.78;49.62
50977;BME280;36992;48.200;12.418;2024-01-30T06:59:49;98197.13;;;2.77;49.84
50977;BME280;36992;48.200;12.418;2024-01-30T07:02:16;98196.31;;;2.77;49.93
50977;BME280;36992;48.200;12.418;2024-01-30T07:04:42;98202.47;;;2.77;49.89
50977;BME280;36992;48.200;12.418;2024-01-30T07:07:09;98205.13;;;2.77;50.18
50977;BME280;36992;48.200;12.418;2024-01-30T07:09:37;98199.78;;;2.77;50.09
50977;BME280;36992;48.200;12.418;2024-01-30T07:12:05;98197.13;;;2.77;49.96
50977;BME280;36992;48.200;12.418;2024-01-30T07:14:33;98199.59;;;2.79;49.77
50977;BME280;36992;48.200;12.418;2024-01-30T07:17:00;98201.63;;;2.77;49.96
50977;BME280;36992;48.200;12.418;2024-01-30T07:19:27;98197.53;;;2.74;50.17
50977;BME280;36992;48.200;12.418;2024-01-30T07:21:53;98199.38;;;2.74;50.12
50977;BME280;36992;48.200;12.418;2024-01-30T07:24:20;98199.38;;;2.74;50.03
50977;BME280;36992;48.200;12.418;2024-01-30T07:26:46;98200.41;;;2.73;50.05
50977;BME280;36992;48.200;12.418;2024-01-30T07:29:13;98196.09;;;2.72;50.40
50977;BME280;36992;48.200;12.418;2024-01-30T07:31:40;98198.38;;;2.75;50.14
50977;BME280;36992;48.200;12.418;2024-01-30T07:34:07;98198.56;;;2.73;50.37
50977;BME280;36992;48.200;12.418;2024-01-30T07:36:33;98201.22;;;2.73;50.52
50977;BME280;36992;48.200;12.418;2024-01-30T07:39:00;98202.84;;;2.74;50.31
50977;BME280;36992;48.200;12.418;2024-01-30T07:41:26;98195.50;;;2.76;50.80
50977;BME280;36992;48.200;12.418;2024-01-30T07:43:53;98200.00;;;2.76;50.83
50977;BME280;36992;48.200;12.418;2024-01-30T07:46:19;98194.28;;;2.79;50.82
50977;BME280;36992;48.200;12.418;2024-01-30T07:48:47;98203.66;;;2.81;50.78
50977;BME280;36992;48.200;12.418;2024-01-30T07:51:14;98205.34;;;2.82;50.91
50977;BME280;36992;48.200;12.418;2024-01-30T07:53:40;98205.09;;;2.84;51.02
50977;BME280;36992;48.200;12.418;2024-01-30T07:56:07;98211.88;;;2.87;50.79
50977;BME280;36992;48.200;12.418;2024-01-30T07:58:33;98217.81;;;2.89;50.83
50977;BME280;36992;48.200;12.418;2024-01-30T08:01:00;98215.75;;;2.91;50.87
50977;BME280;36992;48.200;12.418;2024-01-30T08:03:26;98213.94;;;2.91;50.99
50977;BME280;36992;48.200;12.418;2024-01-30T08:05:54;98217.19;;;2.93;51.15
50977;BME280;36992;48.200;12.418;2024-01-30T08:08:21;98216.38;;;2.93;51.34
50977;BME280;36992;48.200;12.418;2024-01-30T08:10:47;98211.69;;;2.95;51.25
50977;BME280;36992;48.200;12.418;2024-01-30T08:13:15;98215.97;;;2.96;51.12
50977;BME280;36992;48.200;12.418;2024-01-30T08:15:41;98215.53;;;2.99;51.32
50977;BME280;36992;48.200;12.418;2024-01-30T08:18:08;98220.47;;;3.02;51.16
50977;BME280;36992;48.200;12.418;2024-01-30T08:20:34;98224.56;;;3.05;51.39
50977;BME280;36992;48.200;12.418;2024-01-30T08:23:02;98226.63;;;3.09;51.38
50977;BME280;36992;48.200;12.418;2024-01-30T08:25:29;98222.91;;;3.10;51.42
50977;BME280;36992;48.200;12.418;2024-01-30T08:27:55;98219.84;;;3.14;51.41
50977;BME280;36992;48.200;12.418;2024-01-30T08:30:22;98227.41;;;3.17;51.50
50977;BME280;36992;48.200;12.418;2024-01-30T08:32:48;98220.03;;;3.19;51.47
50977;BME280;36992;48.200;12.418;2024-01-30T08:35:15;98231.91;;;3.23;51.33
50977;BME280;36992;48.200;12.418;2024-01-30T08:37:42;98225.56;;;3.24;51.63
50977;BME280;36992;48.200;12.418;2024-01-30T08:40:10;98224.13;;;3.28;51.35
50977;BME280;36992;48.200;12.418;2024-01-30T08:42:36;98224.97;;;3.29;51.35
50977;BME280;36992;48.200;12.418;2024-01-30T08:45:04;98223.94;;;3.30;51.26
50977;BME280;36992;48.200;12.418;2024-01-30T08:47:31;98224.13;;;3.35;51.50
50977;BME280;36992;48.200;12.418;2024-01-30T08:49:58;98221.25;;;3.36;51.49
50977;BME280;36992;48.200;12.418;2024-01-30T08:52:25;98233.13;;;3.41;51.74
50977;BME280;36992;48.200;12.418;2024-01-30T08:54:51;98224.69;;;3.44;51.84
50977;BME280;36992;48.200;12.418;2024-01-30T08:57:19;98228.59;;;3.48;51.84
50977;BME280;36992;48.200;12.418;2024-01-30T08:59:46;98235.56;;;3.49;52.04
50977;BME280;36992;48.200;12.418;2024-01-30T09:02:13;98229.81;;;3.52;52.17
50977;BME280;36992;48.200;12.418;2024-01-30T09:04:41;98234.53;;;3.57;51.68
50977;BME280;36992;48.200;12.418;2024-01-30T09:07:09;98239.22;;;3.61;51.96
50977;BME280;36992;48.200;12.418;2024-01-30T09:09:35;98229.78;;;3.66;52.30
50977;BME280;36992;48.200;12.418;2024-01-30T09:12:02;98232.03;;;3.69;52.40
50977;BME280;36992;48.200;12.418;2024-01-30T09:14:33;98231.81;;;3.77;52.38
50977;BME280;36992;48.200;12.418;2024-01-30T09:17:00;98226.88;;;3.81;52.27
50977;BME280;36992;48.200;12.418;2024-01-30T09:19:28;98232.16;;;3.87;52.47
50977;BME280;36992;48.200;12.418;2024-01-30T09:21:54;98236.66;;;3.94;52.69
50977;BME280;36992;48.200;12.418;2024-01-30T09:24:21;98231.31;;;4.00;52.61
50977;BME280;36992;48.200;12.418;2024-01-30T09:26:47;98235.59;;;4.08;52.50
50977;BME280;36992;48.200;12.418;2024-01-30T09:29:14;98239.84;;;4.16;52.70
50977;BME280;36992;48.200;12.418;2024-01-30T09:31:44;98242.06;;;4.26;52.54
50977;BME280;36992;48.200;12.418;2024-01-30T09:34:11;98241.44;;;4.30;52.64
50977;BME280;36992;48.200;12.418;2024-01-30T09:36:37;98235.03;;;4.38;52.65
50977;BME280;36992;48.200;12.418;2024-01-30T09:39:04;98228.00;;;4.44;52.64
50977;BME280;36992;48.200;12.418;2024-01-30T09:41:32;98237.63;;;4.52;52.94
50977;BME280;36992;48.200;12.418;2024-01-30T09:44:00;98230.59;;;4.57;52.71
50977;BME280;36992;48.200;12.418;2024-01-30T09:46:30;98231.34;;;4.65;52.53
50977;BME280;36992;48.200;12.418;2024-01-30T09:49:00;98230.28;;;4.72;52.80
50977;BME280;36992;48.200;12.418;2024-01-30T09:51:29;98232.53;;;4.76;52.79
50977;BME280;36992;48.200;12.418;2024-01-30T09:53:56;98230.00;;;4.81;52.86
50977;BME280;36992;48.200;12.418;2024-01-30T09:56:23;98220.53;;;4.85;52.95
50977;BME280;36992;48.200;12.418;2024-01-30T09:58:49;98230.34;;;4.91;52.44
50977;BME280;36992;48.200;12.418;2024-01-30T10:01:17;98229.47;;;4.97;52.72
50977;BME280;36992;48.200;12.418;2024-01-30T10:03:44;98224.13;;;4.97;52.59
50977;BME280;36992;48.200;12.418;2024-01-30T10:06:11;98223.84;;;5.06;52.77
50977;BME280;36992;48.200;12.418;2024-01-30T10:08:38;98218.09;;;5.09;53.18
50977;BME280;36992;48.200;12.418;2024-01-30T10:11:05;98217.63;;;5.12;52.54
50977;BME280;36992;48.200;12.418;2024-01-30T10:13:31;98217.78;;;5.17;52.26
50977;BME280;36992;48.200;12.418;2024-01-30T10:15:59;98215.75;;;5.19;51.95
50977;BME280;36992;48.200;12.418;2024-01-30T10:18:28;98216.69;;;5.25;51.26
50977;BME280;36992;48.200;12.418;2024-01-30T10:20:54;98216.03;;;5.30;52.09
50977;BME280;36992;48.200;12.418;2024-01-30T10:23:22;98212.47;;;5.36;51.97
50977;BME280;36992;48.200;12.418;2024-01-30T10:25:50;98212.63;;;5.41;52.10
50977;BME280;36992;48.200;12.418;2024-01-30T10:28:17;98201.50;;;5.44;52.18
50977;BME280;36992;48.200;12.418;2024-01-30T10:30:43;98205.94;;;5.50;52.28
50977;BME280;36992;48.200;12.418;2024-01-30T10:33:10;98202.63;;;5.55;51.69
50977;BME280;36992;48.200;12.418;2024-01-30T10:35:36;98202.78;;;5.60;50.95
50977;BME280;36992;48.200;12.418;2024-01-30T10:38:05;98202.91;;;5.65;51.43
50977;BME280;36992;48.200;12.418;2024-01-30T10:40:37;98195.03;;;5.71;50.65
50977;BME280;36992;48.200;12.418;2024-01-30T10:43:05;98196.25;;;5.75;50.44
50977;BME280;36992;48.200;12.418;2024-01-30T10:45:35;98190.78;;;5.81;50.36
50977;BME280;36992;48.200;12.418;2024-01-30T10:48:05;98184.78;;;5.86;50.75
50977;BME280;36992;48.200;12.418;2024-01-30T10:50:33;98189.47;;;5.91;50.42
50977;BME280;36992;48.200;12.418;2024-01-30T10:53:01;98183.22;;;5.97;50.46
50977;BME280;36992;48.200;12.418;2024-01-30T10:55:29;98180.72;;;6.02;51.07
50977;BME280;36992;48.200;12.418;2024-01-30T10:57:57;98176.28;;;6.08;51.75
50977;BME280;36992;48.200;12.418;2024-01-30T11:00:24;98169.25;;;6.14;51.07
50977;BME280;36992;48.200;12.418;2024-01-30T11:02:52;98175.75;;;6.18;51.57
50977;BME280;36992;48.200;12.418;2024-01-30T11:05:23;98166.38;;;6.27;51.07
50977;BME280;36992;48.200;12.418;2024-01-30T11:07:51;98165.91;;;6.30;50.90
50977;BME280;36992;48.200;12.418;2024-01-30T11:10:18;98164.41;;;6.34;51.04
50977;BME280;36992;48.200;12.418;2024-01-30T11:12:46;98162.44;;;6.42;51.37
50977;BME280;36992;48.200;12.418;2024-01-30T11:15:15;98155.13;;;6.49;50.72
50977;BME280;36992;48.200;12.418;2024-01-30T11:17:43;98155.72;;;6.51;51.02
50977;BME280;36992;48.200;12.418;2024-01-30T11:20:11;98154.81;;;6.57;50.24
50977;BME280;36992;48.200;12.418;2024-01-30T11:22:41;98156.56;;;6.64;50.45
50977;BME280;36992;48.200;12.418;2024-01-30T11:25:11;98143.53;;;6.67;50.38
50977;BME280;36992;48.200;12.418;2024-01-30T11:27:38;98145.50;;;6.72;50.39
50977;BME280;36992;48.200;12.418;2024-01-30T11:30:06;98144.81;;;6.77;51.05
50977;BME280;36992;48.200;12.418;2024-01-30T11:32:34;98146.31;;;6.84;50.46
50977;BME280;36992;48.200;12.418;2024-01-30T11:35:03;98147.50;;;6.88;50.18
50977;BME280;36992;48.200;12.418;2024-01-30T11:37:31;98137.94;;;6.93;51.03
50977;BME280;36992;48.200;12.418;2024-01-30T11:39:58;98133.75;;;6.97;50.78
50977;BME280;36992;48.200;12.418;2024-01-30T11:42:26;98134.66;;;7.02;50.31
50977;BME280;36992;48.200;12.418;2024-01-30T11:44:53;98130.72;;;7.05;50.45
50977;BME280;36992;48.200;12.418;2024-01-30T11:47:20;98130.00;;;7.10;50.54
50977;BME280;36992;48.200;12.418;2024-01-30T11:49:48;98127.44;;;7.15;50.24
50977;BME280;36992;48.200;12.418;2024-01-30T11:52:14;98118.34;;;7.16;50.67
50977;BME280;36992;48.200;12.418;2024-01-30T11:54:41;98124.66;;;7.22;51.12
50977;BME280;36992;48.200;12.418;2024-01-30T11:57:07;98119.63;;;7.25;51.12
50977;BME280;36992;48.200;12.418;2024-01-30T11:59:34;98117.28;;;7.29;51.20
50977;BME280;36992;48.200;12.418;2024-01-30T12:02:01;98109.59;;;7.33;51.11
50977;BME280;36992;48.200;12.418;2024-01-30T12:04:28;98116.91;;;7.37;51.29
50977;BME280;36992;48.200;12.418;2024-01-30T12:06:56;98111.66;;;7.42;50.85
50977;BME280;36992;48.200;12.418;2024-01-30T12:09:23;98105.00;;;7.45;50.84
50977;BME280;36992;48.200;12.418;2024-01-30T12:11:49;98112.34;;;7.50;51.21
50977;BME280;36992;48.200;12.418;2024-01-30T12:14:16;98109.75;;;7.55;50.05
50977;BME280;36992;48.200;12.418;2024-01-30T12:16:48;98104.03;;;7.63;50.38
50977;BME280;36992;48.200;12.418;2024-01-30T12:19:21;98103.31;;;7.68;50.21
50977;BME280;36992;48.200;12.418;2024-01-30T12:21:53;98101.75;;;7.72;50.31
50977;BME280;36992;48.200;12.418;2024-01-30T12:24:21;98092.44;;;7.75;50.14
50977;BME280;36992;48.200;12.418;2024-01-30T12:26:48;98095.72;;;7.77;49.58
50977;BME280;36992;48.200;12.418;2024-01-30T12:29:15;98093.34;;;7.80;49.95
50977;BME280;36992;48.200;12.418;2024-01-30T12:31:42;98091.00;;;7.84;49.99
50977;BME280;36992;48.200;12.418;2024-01-30T12:34:09;98092.16;;;7.88;50.50
50977;BME280;36992;48.200;12.418;2024-01-30T12:36:35;98094.13;;;7.93;50.32
50977;BME280;36992;48.200;12.418;2024-01-30T12:39:02;98085.34;;;7.97;49.98
50977;BME280;36992;48.200;12.418;2024-01-30T12:41:30;98080.06;;;8.03;49.67
50977;BME280;36992;48.200;12.418;2024-01-30T12:43:57;98086.00;;;8.05;49.31
50977;BME280;36992;48.200;12.418;2024-01-30T12:46:27;98085.03;;;8.11;48.63
50977;BME280;36992;48.200;12.418;2024-01-30T12:48:53;98078.38;;;8.14;48.57
50977;BME280;36992;48.200;12.418;2024-01-30T12:51:20;98084.88;;;8.18;48.37
50977;BME280;36992;48.200;12.418;2024-01-30T12:53:46;98081.69;;;8.21;48.70
50977;BME280;36992;48.200;12.418;2024-01-30T12:56:13;98080.16;;;8.25;47.62
50977;BME280;36992;48.200;12.418;2024-01-30T12:58:42;98082.69;;;8.32;47.92